createdAt,value
2023-03-25T00:00:13.306Z,8.10
2023-03-25T00:02:45.472Z,8.20
2023-03-25T00:05:15.047Z,8.20
2023-03-25T00:07:43.276Z,8.20
2023-03-25T00:10:11.595Z,8.20
2023-03-25T00:12:39.685Z,8.20
2023-03-25T00:15:08.635Z,8.20
2023-03-25T00:17:37.003Z,8.20
2023-03-25T00:20:09.319Z,8.30
2023-03-25T00:22:40.909Z,8.30
2023-03-25T00:25:10.416Z,8.20
2023-03-25T00:27:38.533Z,8.30
2023-03-25T00:30:08.961Z,8.20
2023-03-25T00:32:37.043Z,8.20
2023-03-25T00:35:08.476Z,8.20
2023-03-25T00:37:36.701Z,8.20
2023-03-25T00:40:06.149Z,8.20
2023-03-25T00:42:34.987Z,8.20
2023-03-25T00:45:03.032Z,8.20
2023-03-25T00:47:31.562Z,8.20
2023-03-25T00:49:59.675Z,8.10
2023-03-25T00:52:29.073Z,8.10
2023-03-25T00:54:57.151Z,8.10
2023-03-25T00:57:25.233Z,8.10
2023-03-25T00:59:53.318Z,8.10
2023-03-25T01:02:22.527Z,8.10
2023-03-25T01:04:50.916Z,8.10
2023-03-25T01:07:20.260Z,8.10
2023-03-25T01:09:49.835Z,8.10
2023-03-25T01:12:19.007Z,8.10
2023-03-25T01:14:47.945Z,8.00
2023-03-25T01:17:16.365Z,8.00
2023-03-25T01:19:44.626Z,8.00
2023-03-25T01:22:12.676Z,8.00
2023-03-25T01:24:40.739Z,8.00
2023-03-25T01:27:10.326Z,7.90
2023-03-25T01:29:38.524Z,7.90
2023-03-25T01:32:07.104Z,7.90
2023-03-25T01:34:38.659Z,7.90
2023-03-25T01:37:07.971Z,7.90
2023-03-25T01:39:36.094Z,7.90
2023-03-25T01:42:04.177Z,7.80
2023-03-25T01:45:09.985Z,7.80
2023-03-25T01:47:39.456Z,7.80
2023-03-25T01:50:10.988Z,7.80
2023-03-25T01:52:39.094Z,7.80
2023-03-25T01:55:08.255Z,7.70
2023-03-25T01:57:37.283Z,7.70
2023-03-25T02:00:09.376Z,7.70
2023-03-25T02:02:41.699Z,7.70
2023-03-25T02:05:11.666Z,7.70
2023-03-25T02:07:42.911Z,7.70
2023-03-25T02:10:12.259Z,7.70
2023-03-25T02:12:41.016Z,7.70
2023-03-25T02:15:10.801Z,7.70
2023-03-25T02:17:46.678Z,7.70
2023-03-25T02:20:35.654Z,7.60
2023-03-25T02:23:17.286Z,7.60
2023-03-25T02:26:04.155Z,7.70
2023-03-25T02:28:36.506Z,7.70
2023-03-25T02:31:19.358Z,7.70
2023-03-25T02:34:17.242Z,7.70
2023-03-25T02:37:06.946Z,7.80
2023-03-25T02:39:38.354Z,7.80
2023-03-25T02:42:10.036Z,7.80
2023-03-25T02:44:40.456Z,7.80
2023-03-25T02:47:10.642Z,7.80
2023-03-25T02:49:40.095Z,7.90
2023-03-25T02:52:10.373Z,7.90
2023-03-25T02:54:41.566Z,7.90
2023-03-25T02:57:10.606Z,8.00
2023-03-25T02:59:39.004Z,8.00
2023-03-25T03:02:09.216Z,8.00
2023-03-25T03:04:47.145Z,8.10
2023-03-25T03:07:19.398Z,8.10
2023-03-25T03:09:50.689Z,8.10
2023-03-25T03:12:26.228Z,8.10
2023-03-25T03:15:02.255Z,8.20
2023-03-25T03:17:34.388Z,8.20
2023-03-25T03:20:03.652Z,8.20
2023-03-25T03:22:38.685Z,8.20
2023-03-25T03:25:12.378Z,8.20
2023-03-25T03:27:41.868Z,8.20
2023-03-25T03:30:12.174Z,8.10
2023-03-25T03:32:43.499Z,8.20
2023-03-25T03:35:13.753Z,8.20
2023-03-25T03:37:42.567Z,8.20
2023-03-25T03:40:13.922Z,8.30
2023-03-25T03:42:43.571Z,8.30
2023-03-25T03:45:13.873Z,8.30
2023-03-25T03:47:43.041Z,8.40
2023-03-25T03:50:12.445Z,8.30
2023-03-25T03:52:42.380Z,8.40
2023-03-25T03:55:14.198Z,8.40
2023-03-25T03:57:43.821Z,8.40
2023-03-25T04:00:15.179Z,8.40
2023-03-25T04:02:43.991Z,8.50
2023-03-25T04:05:13.444Z,8.40
2023-03-25T04:07:42.926Z,8.40
2023-03-25T04:10:15.846Z,8.40
2023-03-25T04:12:45.643Z,8.40
2023-03-25T04:15:13.766Z,8.40
2023-03-25T04:17:41.798Z,8.40
2023-03-25T04:20:12.120Z,8.40
2023-03-25T04:22:45.362Z,8.40
2023-03-25T04:25:14.946Z,8.40
2023-03-25T04:27:49.079Z,8.40
2023-03-25T04:30:19.299Z,8.40
2023-03-25T04:32:47.539Z,8.30
2023-03-25T04:35:17.094Z,8.40
2023-03-25T04:37:46.099Z,8.40
2023-03-25T04:40:16.478Z,8.30
2023-03-25T04:42:46.509Z,8.40
2023-03-25T04:45:16.838Z,8.20
2023-03-25T04:47:47.172Z,8.20
2023-03-25T04:50:22.242Z,8.20
2023-03-25T04:52:50.534Z,8.30
2023-03-25T04:55:19.956Z,8.20
2023-03-25T04:57:48.094Z,8.20
2023-03-25T05:00:17.622Z,8.30
2023-03-25T05:02:46.952Z,8.20
2023-03-25T05:05:18.334Z,8.30
2023-03-25T05:07:47.188Z,8.30
2023-03-25T05:10:15.434Z,8.30
2023-03-25T05:12:44.814Z,8.30
2023-03-25T05:15:13.221Z,8.20
2023-03-25T05:17:41.328Z,8.20
2023-03-25T05:20:10.729Z,8.10
2023-03-25T05:22:38.962Z,8.20
2023-03-25T05:25:07.657Z,8.20
2023-03-25T05:27:35.710Z,8.10
2023-03-25T05:30:07.606Z,8.20
2023-03-25T05:32:35.708Z,8.20
2023-03-25T05:35:04.330Z,8.20
2023-03-25T05:37:32.363Z,8.20
2023-03-25T05:40:00.399Z,8.30
2023-03-25T05:42:28.537Z,8.20
2023-03-25T05:44:57.719Z,8.30
2023-03-25T05:47:28.863Z,8.30
2023-03-25T05:49:56.913Z,8.30
2023-03-25T05:52:25.700Z,8.30
2023-03-25T05:54:53.744Z,8.40
2023-03-25T05:57:21.754Z,8.50
2023-03-25T05:59:49.796Z,8.50
2023-03-25T06:02:18.100Z,8.50
2023-03-25T06:04:50.596Z,8.60
2023-03-25T06:07:20.797Z,8.70
2023-03-25T06:09:49.018Z,8.60
2023-03-25T06:12:18.000Z,8.80
2023-03-25T06:14:46.084Z,8.90
2023-03-25T06:17:19.023Z,9.00
2023-03-25T06:19:48.459Z,9.00
2023-03-25T06:22:16.537Z,9.00
2023-03-25T06:24:44.630Z,8.90
2023-03-25T06:27:14.569Z,8.90
2023-03-25T06:29:42.902Z,8.90
2023-03-25T06:32:11.198Z,8.90
2023-03-25T06:34:42.640Z,8.90
2023-03-25T06:37:12.123Z,8.90
2023-03-25T06:39:40.212Z,8.90
2023-03-25T06:42:17.638Z,8.90
2023-03-25T06:44:59.781Z,8.80
2023-03-25T06:47:40.226Z,8.70
2023-03-25T06:50:09.248Z,8.60
2023-03-25T06:52:38.620Z,8.60
2023-03-25T06:55:07.459Z,8.70
2023-03-25T06:57:36.019Z,8.60
2023-03-25T07:00:05.818Z,8.80
2023-03-25T07:02:33.856Z,8.90
2023-03-25T07:05:01.991Z,9.00
2023-03-25T07:07:30.038Z,9.10
2023-03-25T07:09:59.438Z,9.30
2023-03-25T07:12:27.436Z,9.50
2023-03-25T07:14:55.823Z,9.60
2023-03-25T07:17:24.039Z,9.80
2023-03-25T07:19:52.100Z,9.90
2023-03-25T07:22:20.258Z,10.00
2023-03-25T07:24:48.295Z,10.10
2023-03-25T07:27:17.656Z,10.30
2023-03-25T07:29:55.693Z,10.80
2023-03-25T07:32:23.775Z,11.30
2023-03-25T07:34:51.793Z,11.80
2023-03-25T07:37:19.794Z,11.60
2023-03-25T07:39:47.816Z,11.60
2023-03-25T07:42:17.303Z,11.30
2023-03-25T07:45:09.487Z,11.60
2023-03-25T07:47:40.336Z,11.70
2023-03-25T07:50:09.533Z,11.90
2023-03-25T07:52:37.553Z,12.20
2023-03-25T07:55:06.208Z,12.50
2023-03-25T07:57:35.557Z,12.80
2023-03-25T08:00:05.406Z,12.90
2023-03-25T08:02:40.450Z,13.10
2023-03-25T08:05:09.005Z,13.30
2023-03-25T08:07:37.015Z,13.00
2023-03-25T08:10:05.412Z,12.70
2023-03-25T08:12:34.772Z,12.70
2023-03-25T08:15:02.787Z,12.70
2023-03-25T08:17:31.177Z,12.20
2023-03-25T08:20:00.797Z,12.60
2023-03-25T08:22:28.964Z,12.80
2023-03-25T08:24:57.022Z,13.00
2023-03-25T08:27:25.183Z,13.10
2023-03-25T08:29:57.652Z,12.90
2023-03-25T08:32:26.267Z,12.60
2023-03-25T08:34:54.324Z,12.50
2023-03-25T08:37:23.996Z,12.30
2023-03-25T08:39:52.038Z,12.40
2023-03-25T08:42:20.058Z,12.70
2023-03-25T08:44:48.060Z,13.20
2023-03-25T08:47:17.423Z,13.60
2023-03-25T08:49:45.570Z,13.60
2023-03-25T08:52:13.599Z,14.30
2023-03-25T08:54:41.606Z,13.60
2023-03-25T08:57:09.693Z,13.40
2023-03-25T08:59:37.777Z,13.40
2023-03-25T09:02:05.891Z,13.20
2023-03-25T09:04:38.602Z,13.30
2023-03-25T09:07:11.337Z,12.90
2023-03-25T09:09:40.488Z,13.00
2023-03-25T09:12:08.759Z,12.90
2023-03-25T09:14:37.015Z,12.50
2023-03-25T09:17:06.126Z,12.50
2023-03-25T09:19:37.888Z,12.80
2023-03-25T09:22:06.250Z,12.90
2023-03-25T09:24:35.768Z,12.80
2023-03-25T09:27:03.946Z,12.90
2023-03-25T09:29:31.955Z,12.90
2023-03-25T09:31:59.987Z,12.90
2023-03-25T09:34:28.118Z,12.80
2023-03-25T09:36:57.652Z,12.70
2023-03-25T09:39:25.652Z,12.40
2023-03-25T09:42:02.952Z,12.40
2023-03-25T09:44:32.175Z,12.40
2023-03-25T09:47:00.701Z,12.60
2023-03-25T09:49:38.821Z,12.60
2023-03-25T09:52:08.454Z,12.60
2023-03-25T09:54:37.541Z,12.40
2023-03-25T09:57:06.526Z,12.20
2023-03-25T09:59:39.977Z,12.30
2023-03-25T10:02:11.068Z,12.40
2023-03-25T10:04:47.679Z,12.40
2023-03-25T10:07:27.280Z,12.50
2023-03-25T10:09:57.724Z,12.40
2023-03-25T10:12:34.582Z,12.40
2023-03-25T10:15:09.336Z,12.30
2023-03-25T10:17:39.345Z,12.20
2023-03-25T10:20:12.932Z,12.00
2023-03-25T10:22:45.507Z,12.00
2023-03-25T10:25:15.507Z,12.20
2023-03-25T10:27:44.361Z,12.50
2023-03-25T10:30:14.234Z,12.60
2023-03-25T10:32:44.486Z,13.60
2023-03-25T10:35:13.582Z,14.60
2023-03-25T10:37:43.105Z,14.10
2023-03-25T10:40:16.684Z,14.10
2023-03-25T10:42:51.442Z,14.00
2023-03-25T10:45:19.980Z,14.20
2023-03-25T10:47:48.006Z,14.20
2023-03-25T10:50:16.760Z,14.10
2023-03-25T10:52:46.144Z,14.10
2023-03-25T10:55:19.872Z,14.60
2023-03-25T10:57:47.889Z,14.80
2023-03-25T11:00:18.323Z,14.90
2023-03-25T11:02:47.068Z,15.40
2023-03-25T11:05:18.985Z,15.20
2023-03-25T11:07:50.800Z,14.60
2023-03-25T11:10:20.766Z,15.30
2023-03-25T11:12:48.905Z,15.80
2023-03-25T11:15:17.825Z,15.60
2023-03-25T11:17:45.956Z,15.70
2023-03-25T11:20:20.090Z,15.40
2023-03-25T11:22:51.301Z,16.10
2023-03-25T11:25:21.334Z,15.30
2023-03-25T11:27:50.953Z,15.40
2023-03-25T11:30:20.189Z,15.00
2023-03-25T11:32:58.156Z,14.60
2023-03-25T11:35:28.422Z,14.40
2023-03-25T11:37:58.816Z,14.50
2023-03-25T11:40:27.324Z,14.50
2023-03-25T11:42:55.794Z,14.50
2023-03-25T11:45:24.623Z,15.30
2023-03-25T11:47:52.749Z,15.80
2023-03-25T11:50:22.394Z,16.20
2023-03-25T11:52:51.586Z,16.40
2023-03-25T11:55:22.573Z,16.80
2023-03-25T11:57:50.916Z,16.50
2023-03-25T12:00:28.952Z,16.90
2023-03-25T12:03:01.301Z,16.50
2023-03-25T12:05:29.417Z,15.90
2023-03-25T12:08:03.274Z,15.60
2023-03-25T12:10:39.494Z,15.20
2023-03-25T12:13:08.498Z,15.10
2023-03-25T12:15:41.334Z,15.20
2023-03-25T12:18:48.227Z,14.70
2023-03-25T12:21:22.613Z,14.80
2023-03-25T12:23:54.096Z,14.90
2023-03-25T12:26:26.011Z,14.30
2023-03-25T12:29:04.985Z,14.40
2023-03-25T12:31:38.332Z,14.30
2023-03-25T12:34:10.914Z,14.40
2023-03-25T12:36:44.821Z,14.30
2023-03-25T12:39:29.320Z,14.50
2023-03-25T12:42:09.522Z,14.50
2023-03-25T12:44:48.047Z,14.20
2023-03-25T12:47:17.719Z,14.50
2023-03-25T12:50:02.285Z,14.20
2023-03-25T12:52:34.828Z,14.20
2023-03-25T12:55:18.535Z,14.70
2023-03-25T12:58:00.631Z,14.90
2023-03-25T13:00:38.632Z,15.10
2023-03-25T13:03:29.799Z,15.20
2023-03-25T13:06:00.634Z,14.80
2023-03-25T13:08:31.404Z,14.40
2023-03-25T13:11:02.795Z,14.60
2023-03-25T13:13:32.660Z,14.10
2023-03-25T13:16:04.733Z,14.10
2023-03-25T13:18:34.747Z,14.20
2023-03-25T13:21:09.098Z,14.10
2023-03-25T13:23:41.674Z,14.10
2023-03-25T13:26:11.831Z,13.70
2023-03-25T13:28:43.623Z,13.20
2023-03-25T13:31:14.609Z,12.80
2023-03-25T13:33:45.079Z,12.20
2023-03-25T13:36:17.787Z,12.10
2023-03-25T13:38:48.807Z,11.80
2023-03-25T13:41:18.738Z,11.90
2023-03-25T13:43:52.250Z,11.70
2023-03-25T13:46:22.053Z,12.10
2023-03-25T13:48:51.759Z,12.00
2023-03-25T13:51:19.791Z,11.80
2023-03-25T13:53:48.866Z,11.90
2023-03-25T13:56:47.999Z,12.00
2023-03-25T13:59:27.596Z,12.20
2023-03-25T14:02:28.545Z,12.00
2023-03-25T14:05:18.736Z,11.80
2023-03-25T14:08:13.748Z,11.40
2023-03-25T14:10:50.138Z,11.20
2023-03-25T14:13:19.234Z,11.10
2023-03-25T14:15:54.582Z,10.80
2023-03-25T14:18:22.622Z,10.80
2023-03-25T14:20:51.360Z,10.90
2023-03-25T14:23:21.179Z,10.70
2023-03-25T14:25:50.507Z,10.60
2023-03-25T14:28:20.390Z,10.70
2023-03-25T14:31:11.557Z,10.70
2023-03-25T14:34:25.721Z,10.80
2023-03-25T14:37:28.897Z,10.90
2023-03-25T14:40:00.308Z,11.00
2023-03-25T14:42:30.456Z,11.20
2023-03-25T14:45:32.247Z,11.60
2023-03-25T14:48:02.591Z,11.80
2023-03-25T14:50:35.498Z,12.10
2023-03-25T14:53:05.253Z,12.20
2023-03-25T14:55:34.160Z,12.20
2023-03-25T14:58:02.991Z,12.30
2023-03-25T15:00:34.103Z,12.40
2023-03-25T15:03:04.825Z,12.60
2023-03-25T15:05:33.380Z,12.90
2023-03-25T15:08:04.495Z,12.50
2023-03-25T15:10:34.471Z,12.60
2023-03-25T15:13:04.960Z,12.40
2023-03-25T15:15:34.717Z,12.40
2023-03-25T15:18:04.203Z,12.40
2023-03-25T15:20:36.011Z,12.40
2023-03-25T15:23:37.357Z,12.40
2023-03-25T15:26:06.290Z,12.40
2023-03-25T15:29:05.412Z,12.50
2023-03-25T15:31:40.820Z,12.60
2023-03-25T15:34:34.061Z,12.50
2023-03-25T15:37:10.072Z,12.70
2023-03-25T15:39:44.182Z,12.70
2023-03-25T15:42:32.796Z,12.80
2023-03-25T15:45:19.252Z,13.00
2023-03-25T15:47:54.054Z,13.00
2023-03-25T15:50:28.461Z,13.00
2023-03-25T15:53:32.542Z,13.00
2023-03-25T15:56:08.236Z,13.00
2023-03-25T15:58:39.882Z,12.90
2023-03-25T16:01:15.360Z,12.90
2023-03-25T16:03:43.521Z,12.80
2023-03-25T16:06:16.093Z,12.10
2023-03-25T16:08:45.832Z,11.60
2023-03-25T16:11:17.765Z,11.10
2023-03-25T16:13:45.810Z,10.80
2023-03-25T16:16:14.096Z,10.70
2023-03-25T16:18:42.425Z,10.90
2023-03-25T16:21:10.454Z,11.00
2023-03-25T16:23:39.831Z,11.20
2023-03-25T16:26:08.102Z,11.10
2023-03-25T16:28:40.103Z,11.20
2023-03-25T16:31:11.122Z,11.40
2023-03-25T16:33:39.897Z,11.50
2023-03-25T16:36:09.887Z,11.50
2023-03-25T16:38:39.299Z,11.60
2023-03-25T16:41:08.867Z,11.60
2023-03-25T16:43:36.896Z,11.60
2023-03-25T16:46:05.766Z,11.60
2023-03-25T16:48:34.760Z,11.60
2023-03-25T16:51:12.644Z,11.60
2023-03-25T16:53:42.114Z,11.60
2023-03-25T16:56:22.774Z,11.60
2023-03-25T16:58:58.084Z,11.50
2023-03-25T17:01:26.421Z,11.40
2023-03-25T17:03:56.103Z,9.60
2023-03-25T17:06:26.163Z,7.50
2023-03-25T17:08:56.925Z,7.00
2023-03-25T17:11:27.097Z,6.70
2023-03-25T17:13:58.856Z,6.40
2023-03-25T17:16:27.816Z,6.50
2023-03-25T17:18:56.150Z,6.80
2023-03-25T17:21:27.201Z,7.00
2023-03-25T17:23:56.971Z,7.20
2023-03-25T17:26:25.831Z,7.40
2023-03-25T17:29:02.156Z,7.50
2023-03-25T17:31:33.903Z,7.50
2023-03-25T17:34:03.166Z,7.60
2023-03-25T17:36:31.809Z,7.70
2023-03-25T17:39:03.815Z,7.80
2023-03-25T17:41:36.210Z,7.80
2023-03-25T17:44:04.244Z,7.90
2023-03-25T17:46:32.520Z,7.90
2023-03-25T17:49:00.882Z,7.90
2023-03-25T17:51:30.438Z,7.90
2023-03-25T17:53:58.466Z,8.00
2023-03-25T17:56:28.605Z,8.00
2023-03-25T17:58:59.062Z,8.00
2023-03-25T18:01:27.782Z,8.00
2023-03-25T18:03:55.959Z,8.00
2023-03-25T18:06:24.044Z,8.00
2023-03-25T18:08:52.123Z,8.00
2023-03-25T18:11:20.158Z,8.00
2023-03-25T18:13:49.542Z,8.00
2023-03-25T18:16:18.057Z,8.00
2023-03-25T18:18:46.270Z,8.00
2023-03-25T18:21:14.914Z,8.00
2023-03-25T18:23:44.686Z,8.00
2023-03-25T18:26:12.985Z,8.10
2023-03-25T18:28:42.983Z,8.10
2023-03-25T18:31:15.894Z,8.20
2023-03-25T18:33:44.149Z,8.20
2023-03-25T18:36:12.320Z,8.30
2023-03-25T18:38:40.339Z,8.30
2023-03-25T18:41:08.662Z,8.40
2023-03-25T18:43:36.697Z,8.40
2023-03-25T18:46:05.093Z,8.40
2023-03-25T18:48:34.469Z,8.50
2023-03-25T18:51:02.488Z,8.50
2023-03-25T18:53:30.714Z,8.50
2023-03-25T18:56:00.861Z,8.60
2023-03-25T18:58:30.376Z,8.60
2023-03-25T19:00:58.516Z,8.60
2023-03-25T19:03:30.614Z,8.60
2023-03-25T19:06:00.737Z,8.60
2023-03-25T19:08:29.389Z,8.60
2023-03-25T19:11:04.795Z,8.60
2023-03-25T19:13:33.005Z,8.60
2023-03-25T19:16:01.009Z,8.70
2023-03-25T19:18:29.368Z,8.70
2023-03-25T19:20:57.482Z,8.60
2023-03-25T19:23:27.129Z,8.50
2023-03-25T19:25:57.754Z,8.60
2023-03-25T19:28:26.611Z,8.60
2023-03-25T19:30:56.032Z,8.50
2023-03-25T19:33:24.152Z,8.50
2023-03-25T19:35:54.441Z,8.50
2023-03-25T19:38:22.994Z,8.50
2023-03-25T19:40:53.067Z,8.50
2023-03-25T19:43:21.162Z,8.50
2023-03-25T19:45:49.215Z,8.40
2023-03-25T19:48:17.226Z,8.40
2023-03-25T19:50:45.296Z,8.50
2023-03-25T19:53:13.299Z,8.40
2023-03-25T19:55:45.699Z,8.50
2023-03-25T19:58:15.233Z,8.50
2023-03-25T20:00:44.097Z,8.50
2023-03-25T20:03:13.643Z,8.50
2023-03-25T20:05:42.085Z,8.60
2023-03-25T20:08:11.730Z,8.50
2023-03-25T20:10:41.085Z,8.50
2023-03-25T20:13:10.059Z,8.50
2023-03-25T20:15:39.661Z,8.50
2023-03-25T20:18:07.687Z,8.50
2023-03-25T20:20:35.737Z,8.50
2023-03-25T20:23:03.742Z,8.60
2023-03-25T20:25:31.923Z,8.60
2023-03-25T20:27:59.916Z,8.60
2023-03-25T20:30:28.205Z,8.60
2023-03-25T20:32:58.175Z,8.60
2023-03-25T20:35:26.262Z,8.60
2023-03-25T20:37:54.291Z,8.60
2023-03-25T20:40:27.998Z,8.50
2023-03-25T20:43:02.073Z,8.50
2023-03-25T20:45:30.516Z,8.50
2023-03-25T20:48:00.362Z,8.60
2023-03-25T20:50:28.505Z,8.60
2023-03-25T20:52:56.528Z,8.60
2023-03-25T20:55:24.762Z,8.60
2023-03-25T20:57:53.189Z,8.50
2023-03-25T21:00:21.199Z,8.50
2023-03-25T21:02:50.888Z,8.50
2023-03-25T21:05:20.313Z,8.50
2023-03-25T21:07:48.296Z,8.50
2023-03-25T21:10:16.413Z,8.50
2023-03-25T21:12:45.034Z,8.50
2023-03-25T21:15:14.683Z,8.60
2023-03-25T21:17:43.181Z,8.60
2023-03-25T21:20:12.080Z,8.60
2023-03-25T21:22:44.278Z,8.60
2023-03-25T21:25:14.407Z,8.60
2023-03-25T21:27:45.313Z,8.50
2023-03-25T21:30:14.931Z,8.40
2023-03-25T21:32:43.046Z,8.40
2023-03-25T21:35:11.289Z,8.40
2023-03-25T21:37:40.113Z,8.40
2023-03-25T21:40:11.816Z,8.40
2023-03-25T21:42:41.316Z,8.50
2023-03-25T21:45:10.811Z,8.50
2023-03-25T21:47:38.885Z,8.40
2023-03-25T21:50:09.960Z,8.40
2023-03-25T21:52:38.402Z,8.40
2023-03-25T21:55:07.498Z,8.40
2023-03-25T21:57:38.338Z,8.40
2023-03-25T22:00:08.700Z,8.40
2023-03-25T22:02:43.548Z,8.40
2023-03-25T22:05:12.026Z,8.40
2023-03-25T22:07:40.184Z,8.40
2023-03-25T22:10:09.721Z,8.40
2023-03-25T22:12:39.092Z,8.40
2023-03-25T22:15:08.587Z,8.30
2023-03-25T22:17:36.617Z,8.30
2023-03-25T22:20:06.298Z,8.30
2023-03-25T22:22:34.333Z,8.30
2023-03-25T22:25:03.351Z,8.30
2023-03-25T22:27:31.519Z,8.20
2023-03-25T22:30:01.429Z,8.20
2023-03-25T22:32:29.523Z,8.20
2023-03-25T22:34:57.557Z,8.10
2023-03-25T22:37:25.564Z,8.00
2023-03-25T22:39:53.598Z,7.90
2023-03-25T22:42:21.591Z,7.90
2023-03-25T22:44:49.617Z,8.00
2023-03-25T22:47:18.962Z,8.00
2023-03-25T22:49:46.991Z,7.90
2023-03-25T22:52:14.990Z,8.00
2023-03-25T22:54:43.024Z,8.00
2023-03-25T22:57:11.190Z,8.00
2023-03-25T22:59:39.314Z,8.00
2023-03-25T23:02:07.779Z,7.90
2023-03-25T23:04:38.035Z,7.90
2023-03-25T23:07:08.717Z,7.90
2023-03-25T23:09:42.382Z,7.90
2023-03-25T23:12:11.587Z,7.90
2023-03-25T23:14:40.261Z,7.90
2023-03-25T23:17:08.253Z,7.90
2023-03-25T23:19:37.610Z,7.90
2023-03-25T23:22:05.649Z,7.90
2023-03-25T23:24:35.948Z,7.90
2023-03-25T23:27:04.196Z,7.90
2023-03-25T23:29:32.912Z,7.90
2023-03-25T23:32:01.099Z,7.80
2023-03-25T23:34:29.174Z,7.80
2023-03-25T23:36:58.549Z,7.90
2023-03-25T23:39:27.663Z,7.90
2023-03-25T23:41:55.804Z,8.00
2023-03-25T23:44:23.836Z,7.90
2023-03-25T23:46:52.056Z,7.90
2023-03-25T23:49:20.276Z,8.00
2023-03-25T23:51:48.383Z,8.00
2023-03-25T23:54:17.789Z,8.00
2023-03-25T23:56:45.854Z,8.00
2023-03-25T23:59:13.875Z,7.90
